createdAt,value
2018-07-10T00:00:52.239Z,4.90
2018-07-10T00:01:57.207Z,5.90
2018-07-10T00:03:14.268Z,6.00
2018-07-10T00:04:09.239Z,6.50
2018-07-10T00:05:12.336Z,7.60
2018-07-10T00:06:30.071Z,5.70
2018-07-10T00:07:31.397Z,5.90
2018-07-10T00:08:30.275Z,6.90
2018-07-10T00:09:43.082Z,5.50
2018-07-10T00:11:48.523Z,4.80
2018-07-10T00:12:53.346Z,9.90
2018-07-10T00:14:03.386Z,5.70
2018-07-10T00:16:13.948Z,4.10
2018-07-10T00:17:18.560Z,8.40
2018-07-10T00:18:24.651Z,10.00
2018-07-10T00:19:20.828Z,4.80
2018-07-10T00:20:41.931Z,6.60
2018-07-10T00:22:40.304Z,4.80
2018-07-10T00:24:55.165Z,8.50
2018-07-10T00:26:04.390Z,6.30
2018-07-10T00:28:05.944Z,6.30
2018-07-10T00:29:22.226Z,6.40
2018-07-10T00:30:28.889Z,6.50
2018-07-10T00:31:33.404Z,6.90
2018-07-10T00:33:44.884Z,7.10
2018-07-10T00:36:50.844Z,5.00
2018-07-10T00:38:03.446Z,5.70
2018-07-10T00:39:10.417Z,7.20
2018-07-10T00:40:09.398Z,6.30
2018-07-10T00:41:16.164Z,6.10
2018-07-10T00:42:22.213Z,6.30
2018-07-10T00:43:26.315Z,4.70
2018-07-10T00:44:31.237Z,6.10
2018-07-10T00:45:36.978Z,4.50
2018-07-10T00:46:47.021Z,5.80
2018-07-10T00:47:46.415Z,5.30
2018-07-10T00:48:59.221Z,7.50
2018-07-10T00:49:54.313Z,6.90
2018-07-10T00:51:11.931Z,5.30
2018-07-10T00:52:15.420Z,7.90
2018-07-10T00:54:26.187Z,6.90
2018-07-10T00:55:30.495Z,6.30
2018-07-10T00:56:33.981Z,5.70
2018-07-10T00:57:41.669Z,4.50
2018-07-10T00:58:58.370Z,7.00
2018-07-10T00:59:53.459Z,5.20
2018-07-10T01:00:51.524Z,5.50
2018-07-10T01:02:07.501Z,4.90
2018-07-10T01:03:12.424Z,7.50
2018-07-10T01:04:12.020Z,6.10
2018-07-10T01:06:30.057Z,7.80
2018-07-10T01:07:40.814Z,4.90
2018-07-10T01:08:36.728Z,5.50
2018-07-10T01:09:39.908Z,7.00
2018-07-10T01:10:49.641Z,4.70
2018-07-10T01:12:48.733Z,4.90
2018-07-10T01:14:05.637Z,5.60
2018-07-10T01:15:05.950Z,6.20
2018-07-10T01:16:04.524Z,5.60
2018-07-10T01:17:25.214Z,6.70
2018-07-10T01:18:22.355Z,5.90
2018-07-10T01:19:33.626Z,6.00
2018-07-10T01:20:37.216Z,6.60
2018-07-10T01:22:43.681Z,6.40
2018-07-10T01:23:54.652Z,5.10
2018-07-10T01:24:58.647Z,7.00
2018-07-10T01:26:07.357Z,5.00
2018-07-10T01:27:17.809Z,6.00
2018-07-10T01:28:13.207Z,5.10
2018-07-10T01:29:15.364Z,9.50
2018-07-10T01:31:27.563Z,7.10
2018-07-10T01:32:34.030Z,7.60
2018-07-10T01:33:44.303Z,5.70
2018-07-10T01:34:47.654Z,6.90
2018-07-10T01:36:59.341Z,5.50
2018-07-10T01:38:03.241Z,6.40
2018-07-10T01:39:08.979Z,6.80
2018-07-10T01:40:21.584Z,5.10
2018-07-10T01:41:22.307Z,7.40
2018-07-10T01:42:24.463Z,7.10
2018-07-10T01:44:47.935Z,5.10
2018-07-10T01:46:41.593Z,3.90
2018-07-10T01:47:56.755Z,5.90
2018-07-10T01:49:13.043Z,5.50
2018-07-10T01:49:57.483Z,4.50
2018-07-10T01:51:15.309Z,6.50
2018-07-10T01:52:08.147Z,6.20
2018-07-10T01:53:16.276Z,8.50
2018-07-10T01:54:29.768Z,5.60
2018-07-10T01:55:27.931Z,6.10
2018-07-10T01:56:43.297Z,5.20
2018-07-10T01:57:45.149Z,6.40
2018-07-10T01:58:49.864Z,6.80
2018-07-10T01:59:50.999Z,3.90
2018-07-10T02:01:03.089Z,7.20
2018-07-10T02:02:01.768Z,6.70
2018-07-10T02:03:08.326Z,5.60
2018-07-10T02:04:10.175Z,6.40
2018-07-10T02:06:35.483Z,6.70
2018-07-10T02:07:30.881Z,7.70
2018-07-10T02:08:46.762Z,7.10
2018-07-10T02:09:41.543Z,6.60
2018-07-10T02:11:55.792Z,6.60
2018-07-10T02:13:00.816Z,6.40
2018-07-10T02:14:10.337Z,9.00
2018-07-10T02:15:15.780Z,7.10
2018-07-10T02:16:19.473Z,8.20
2018-07-10T02:19:33.521Z,7.10
2018-07-10T02:20:38.342Z,5.80
2018-07-10T02:21:58.111Z,6.90
2018-07-10T02:22:45.934Z,7.50
2018-07-10T02:23:58.433Z,8.40
2018-07-10T02:24:59.982Z,6.10
2018-07-10T02:26:00.597Z,7.20
2018-07-10T02:28:15.561Z,6.70
2018-07-10T02:29:22.430Z,8.70
2018-07-10T02:30:31.244Z,6.30
2018-07-10T02:31:36.480Z,10.90
2018-07-10T02:33:48.364Z,7.50
2018-07-10T02:35:56.568Z,4.60
2018-07-10T02:37:02.208Z,4.80
2018-07-10T02:38:12.253Z,4.80
2018-07-10T02:39:11.641Z,8.50
2018-07-10T02:40:24.763Z,5.50
2018-07-10T02:41:22.203Z,4.40
2018-07-10T02:43:36.449Z,7.90
2018-07-10T02:44:44.649Z,5.60
2018-07-10T02:45:48.342Z,5.40
2018-07-10T02:46:44.294Z,6.20
2018-07-10T02:47:57.675Z,5.70
2018-07-10T02:48:58.706Z,7.40
2018-07-10T02:50:05.989Z,8.80
2018-07-10T02:51:16.089Z,5.90
2018-07-10T02:52:13.266Z,7.30
2018-07-10T02:53:26.482Z,5.80
2018-07-10T02:54:27.104Z,4.50
2018-07-10T02:56:41.463Z,5.40
2018-07-10T02:57:49.345Z,5.50
2018-07-10T02:58:57.441Z,6.30
2018-07-10T02:59:58.165Z,4.90
2018-07-10T03:00:59.828Z,7.70
2018-07-10T03:02:15.076Z,5.60
2018-07-10T03:03:17.232Z,6.50
2018-07-10T03:05:27.487Z,8.40
2018-07-10T03:06:21.249Z,6.30
2018-07-10T03:07:35.693Z,5.30
2018-07-10T03:08:44.300Z,6.60
2018-07-10T03:10:51.484Z,6.80
2018-07-10T03:11:55.380Z,4.80
2018-07-10T03:13:05.020Z,5.00
2018-07-10T03:14:04.406Z,5.10
2018-07-10T03:15:12.507Z,5.90
2018-07-10T03:16:19.881Z,5.60
2018-07-10T03:17:25.931Z,8.20
2018-07-10T03:18:28.908Z,6.80
2018-07-10T03:19:37.820Z,6.30
2018-07-10T03:20:36.292Z,3.60
2018-07-10T03:21:45.924Z,8.60
2018-07-10T03:22:53.313Z,6.20
2018-07-10T03:24:01.095Z,5.80
2018-07-10T03:25:08.306Z,5.70
2018-07-10T03:26:16.058Z,5.60
2018-07-10T03:27:19.143Z,7.00
2018-07-10T03:28:26.823Z,8.50
2018-07-10T03:30:38.924Z,5.40
2018-07-10T03:31:37.906Z,6.60
2018-07-10T03:32:44.770Z,6.90
2018-07-10T03:33:51.742Z,5.90
2018-07-10T03:34:54.306Z,5.10
2018-07-10T03:36:03.224Z,5.20
2018-07-10T03:37:08.148Z,4.90
2018-07-10T03:38:10.302Z,6.30
2018-07-10T03:39:22.801Z,5.40
2018-07-10T03:41:28.242Z,4.70
2018-07-10T03:42:36.347Z,5.70
2018-07-10T03:43:34.808Z,4.20
2018-07-10T03:45:47.418Z,4.70
2018-07-10T03:46:51.624Z,5.80
2018-07-10T03:48:05.873Z,7.60
2018-07-10T03:49:04.238Z,7.10
2018-07-10T03:50:07.629Z,5.00
2018-07-10T03:51:24.418Z,5.70
2018-07-10T03:52:20.739Z,7.70
2018-07-10T03:53:24.846Z,8.80
2018-07-10T03:54:40.315Z,5.40
2018-07-10T03:57:51.084Z,4.70
2018-07-10T03:58:57.747Z,6.60
2018-07-10T04:00:05.744Z,7.70
2018-07-10T04:01:05.036Z,3.30
2018-07-10T04:02:08.724Z,4.90
2018-07-10T04:03:17.317Z,4.10
2018-07-10T04:04:17.751Z,5.50
2018-07-10T04:05:24.925Z,4.60
2018-07-10T04:06:43.673Z,4.30
2018-07-10T04:07:33.846Z,4.50
2018-07-10T04:08:49.734Z,8.10
2018-07-10T04:09:57.626Z,6.80
2018-07-10T04:10:49.637Z,5.30
2018-07-10T04:12:01.625Z,6.50
2018-07-10T04:13:09.824Z,6.30
2018-07-10T04:14:09.317Z,3.20
2018-07-10T04:15:19.647Z,4.70
2018-07-10T04:16:31.322Z,6.20
2018-07-10T04:17:26.541Z,6.60
2018-07-10T04:18:26.651Z,5.00
2018-07-10T04:20:50.728Z,5.10
2018-07-10T04:21:45.823Z,3.50
2018-07-10T04:22:53.507Z,4.70
2018-07-10T04:24:04.572Z,7.30
2018-07-10T04:25:05.921Z,8.50
2018-07-10T04:26:08.324Z,7.40
2018-07-10T04:27:19.749Z,6.60
2018-07-10T04:28:24.671Z,6.80
2018-07-10T04:30:38.512Z,5.90
2018-07-10T04:31:42.935Z,6.90
2018-07-10T04:32:43.744Z,5.70
2018-07-10T04:33:52.353Z,5.50
2018-07-10T04:34:55.432Z,3.40
2018-07-10T04:37:08.867Z,4.70
2018-07-10T04:38:18.287Z,5.80
2018-07-10T04:39:20.351Z,5.70
2018-07-10T04:40:27.416Z,4.40
2018-07-10T04:41:33.571Z,5.60
2018-07-10T04:42:37.165Z,5.70
2018-07-10T04:43:40.850Z,5.40
2018-07-10T04:44:43.313Z,5.90
2018-07-10T04:45:55.199Z,6.60
2018-07-10T04:46:54.079Z,5.20
2018-07-10T04:48:06.682Z,5.20
2018-07-10T04:49:15.103Z,5.70
2018-07-10T04:50:15.194Z,5.90
2018-07-10T04:51:30.255Z,5.60
2018-07-10T04:52:29.748Z,7.90
2018-07-10T04:53:31.804Z,4.70
2018-07-10T04:54:38.680Z,3.90
2018-07-10T04:56:44.932Z,5.30
2018-07-10T04:57:52.415Z,5.30
2018-07-10T04:59:09.930Z,6.70
2018-07-10T05:00:02.974Z,6.00
2018-07-10T05:01:05.335Z,5.40
2018-07-10T05:02:16.917Z,5.60
2018-07-10T05:04:19.899Z,5.80
2018-07-10T05:05:32.909Z,7.40
2018-07-10T05:06:29.946Z,9.00
2018-07-10T05:07:41.117Z,5.80
2018-07-10T05:08:48.905Z,4.80
2018-07-10T05:10:01.339Z,5.90
2018-07-10T05:11:00.287Z,5.60
2018-07-10T05:11:55.420Z,6.30
2018-07-10T05:13:16.990Z,4.60
2018-07-10T05:14:25.981Z,4.30
2018-07-10T05:15:17.515Z,6.40
2018-07-10T05:16:29.812Z,5.80
2018-07-10T05:19:44.371Z,4.10
2018-07-10T05:20:50.316Z,4.80
2018-07-10T05:21:50.889Z,4.70
2018-07-10T05:24:09.487Z,5.70
2018-07-10T05:25:07.343Z,4.80
2018-07-10T05:26:17.343Z,4.10
2018-07-10T05:27:27.325Z,4.70
2018-07-10T05:28:26.206Z,4.80
2018-07-10T05:29:35.837Z,3.40
2018-07-10T05:30:48.750Z,6.00
2018-07-10T05:31:50.291Z,4.40
2018-07-10T05:32:48.249Z,7.50
2018-07-10T05:34:03.313Z,7.00
2018-07-10T05:35:04.750Z,4.10
2018-07-10T05:36:05.493Z,4.20
2018-07-10T05:38:15.214Z,5.80
2018-07-10T05:39:24.854Z,6.00
2018-07-10T05:40:30.691Z,4.90
2018-07-10T05:41:38.277Z,4.80
2018-07-10T05:44:45.155Z,5.90
2018-07-10T05:47:08.415Z,5.30
2018-07-10T05:48:12.211Z,6.50
2018-07-10T05:51:18.681Z,3.70
2018-07-10T05:53:39.792Z,4.80
2018-07-10T05:54:43.691Z,5.60
2018-07-10T05:55:45.746Z,5.30
2018-07-10T05:57:00.905Z,6.50
2018-07-10T05:57:51.081Z,4.00
2018-07-10T05:59:03.171Z,4.80
2018-07-10T06:00:08.809Z,5.70
2018-07-10T06:01:23.504Z,8.50
2018-07-10T06:02:16.913Z,3.80
2018-07-10T06:03:32.281Z,4.80
2018-07-10T06:04:24.917Z,5.80
2018-07-10T06:06:44.999Z,8.00
2018-07-10T06:07:51.459Z,5.60
2018-07-10T06:09:04.007Z,6.90
2018-07-10T06:12:20.979Z,5.40
2018-07-10T06:13:18.320Z,4.20
2018-07-10T06:14:28.569Z,6.60
2018-07-10T06:16:32.371Z,3.50
2018-07-10T06:17:40.883Z,5.60
2018-07-10T06:18:40.062Z,4.40
2018-07-10T06:19:50.000Z,5.70
2018-07-10T06:20:50.626Z,6.10
2018-07-10T06:22:05.897Z,5.50
2018-07-10T06:24:08.878Z,4.50
2018-07-10T06:26:37.453Z,8.30
2018-07-10T06:27:28.655Z,4.40
2018-07-10T06:28:26.362Z,4.30
2018-07-10T06:29:38.396Z,4.80
2018-07-10T06:30:46.084Z,7.50
2018-07-10T06:31:51.928Z,4.90
2018-07-10T06:32:59.000Z,7.70
2018-07-10T06:34:00.850Z,7.20
2018-07-10T06:35:01.889Z,5.30
2018-07-10T06:36:08.849Z,5.70
2018-07-10T06:37:13.571Z,5.80
2018-07-10T06:38:22.691Z,9.20
2018-07-10T06:40:42.365Z,6.20
2018-07-10T06:41:42.165Z,5.90
2018-07-10T06:42:46.984Z,4.60
2018-07-10T06:43:45.045Z,7.20
2018-07-10T06:44:56.367Z,9.90
2018-07-10T06:46:03.030Z,5.50
2018-07-10T06:47:01.039Z,4.50
2018-07-10T06:48:06.885Z,5.30
2018-07-10T06:49:35.885Z,5.20
2018-07-10T06:50:34.752Z,6.50
2018-07-10T06:51:33.941Z,5.60
2018-07-10T06:53:39.730Z,4.40
2018-07-10T06:55:49.837Z,5.80
2018-07-10T06:56:58.757Z,4.50
2018-07-10T06:57:56.199Z,7.00
2018-07-10T06:59:22.732Z,4.00
2018-07-10T07:00:21.610Z,5.70
2018-07-10T07:02:28.791Z,6.60
2018-07-10T07:03:36.896Z,5.60
2018-07-10T07:04:32.899Z,5.10
2018-07-10T07:05:40.790Z,6.20
2018-07-10T07:06:49.920Z,5.50
2018-07-10T07:07:48.127Z,7.60
2018-07-10T07:08:57.810Z,4.20
2018-07-10T07:09:57.611Z,7.10
2018-07-10T07:11:12.878Z,5.30
2018-07-10T07:12:21.997Z,5.70
2018-07-10T07:13:18.524Z,5.60
2018-07-10T07:14:32.456Z,4.70
2018-07-10T07:15:41.890Z,3.50
2018-07-10T07:16:33.699Z,3.80
2018-07-10T07:17:56.846Z,5.80
2018-07-10T07:20:08.945Z,6.00
2018-07-10T07:20:54.717Z,5.60
2018-07-10T07:22:07.540Z,7.70
2018-07-10T07:23:17.668Z,5.30
2018-07-10T07:24:09.586Z,9.10
2018-07-10T07:25:18.705Z,4.80
2018-07-10T07:27:41.659Z,5.80
2018-07-10T07:28:37.675Z,4.30
2018-07-10T07:29:40.748Z,5.50
2018-07-10T07:31:59.918Z,6.30
2018-07-10T07:34:10.371Z,7.00
2018-07-10T07:35:07.328Z,9.10
2018-07-10T07:36:24.823Z,6.40
2018-07-10T07:39:29.657Z,5.70
2018-07-10T07:40:29.385Z,7.60
2018-07-10T07:41:44.219Z,5.50
2018-07-10T07:42:50.571Z,4.60
2018-07-10T07:44:58.669Z,7.60
2018-07-10T07:46:06.385Z,6.60
2018-07-10T07:47:14.552Z,5.80
2018-07-10T07:48:08.623Z,6.20
2018-07-10T07:49:22.452Z,5.30
2018-07-10T07:51:39.568Z,5.20
2018-07-10T07:53:49.826Z,7.20
2018-07-10T07:56:05.300Z,5.60
2018-07-10T07:57:06.227Z,7.40
2018-07-10T07:59:06.051Z,4.70
2018-07-10T08:00:19.905Z,6.00
2018-07-10T08:01:26.532Z,6.80
2018-07-10T08:02:27.561Z,6.20
2018-07-10T08:03:34.017Z,5.30
2018-07-10T08:04:36.379Z,5.80
2018-07-10T08:05:46.626Z,7.00
2018-07-10T08:06:52.984Z,6.40
2018-07-10T08:10:06.929Z,4.40
2018-07-10T08:11:15.947Z,5.90
2018-07-10T08:12:12.577Z,7.10
2018-07-10T08:13:21.191Z,4.90
2018-07-10T08:14:39.928Z,8.70
2018-07-10T08:16:38.508Z,5.50
2018-07-10T08:17:43.123Z,5.90
2018-07-10T08:20:56.566Z,6.50
2018-07-10T08:22:15.817Z,5.00
2018-07-10T08:23:15.720Z,6.40
2018-07-10T08:24:15.731Z,5.50
2018-07-10T08:25:23.517Z,5.80
2018-07-10T08:26:33.046Z,6.40
2018-07-10T08:27:28.548Z,4.10
2018-07-10T08:28:40.745Z,7.10
2018-07-10T08:29:41.877Z,5.60
2018-07-10T08:30:48.948Z,5.00
2018-07-10T08:31:57.458Z,5.00
2018-07-10T08:32:51.524Z,6.80
2018-07-10T08:34:06.279Z,5.90
2018-07-10T08:35:08.950Z,4.80
2018-07-10T08:37:33.637Z,5.30
2018-07-10T08:38:29.032Z,6.10
2018-07-10T08:39:36.400Z,6.10
2018-07-10T08:40:38.468Z,6.20
2018-07-10T08:41:38.986Z,7.00
2018-07-10T08:42:51.077Z,6.00
2018-07-10T08:45:02.971Z,6.10
2018-07-10T08:46:13.932Z,5.70
2018-07-10T08:47:12.303Z,5.50
2018-07-10T08:48:26.437Z,8.20
2018-07-10T08:49:22.563Z,6.40
2018-07-10T08:50:19.489Z,4.70
2018-07-10T08:51:38.133Z,7.10
2018-07-10T08:52:43.874Z,5.20
2018-07-10T08:54:50.952Z,8.70
2018-07-10T08:55:58.229Z,7.10
2018-07-10T08:58:14.832Z,6.90
2018-07-10T08:59:09.017Z,5.70
2018-07-10T09:00:13.309Z,7.40
2018-07-10T09:01:29.407Z,7.30
2018-07-10T09:02:29.912Z,8.20
2018-07-10T09:03:36.577Z,9.80
2018-07-10T09:04:41.599Z,11.40
2018-07-10T09:06:52.774Z,8.10
2018-07-10T09:07:51.762Z,6.50
2018-07-10T09:10:00.479Z,9.10
2018-07-10T09:11:18.914Z,8.90
2018-07-10T09:12:19.433Z,9.00
2018-07-10T09:13:28.247Z,6.50
2018-07-10T09:15:40.856Z,6.90
2018-07-10T09:16:43.832Z,7.10
2018-07-10T09:17:47.412Z,6.70
2018-07-10T09:19:57.421Z,6.80
2018-07-10T09:21:05.780Z,8.40
2018-07-10T09:22:08.342Z,5.80
2018-07-10T09:23:19.815Z,6.70
2018-07-10T09:24:21.415Z,8.00
2018-07-10T09:25:20.852Z,7.10
2018-07-10T09:26:21.371Z,5.30
2018-07-10T09:28:39.715Z,7.80
2018-07-10T09:31:06.877Z,6.90
2018-07-10T09:31:54.890Z,6.40
2018-07-10T09:33:13.738Z,9.20
2018-07-10T09:35:12.216Z,6.10
2018-07-10T09:36:19.419Z,5.00
2018-07-10T09:37:30.149Z,6.20
2018-07-10T09:38:22.886Z,7.10
2018-07-10T09:39:31.400Z,6.50
2018-07-10T09:40:42.458Z,5.70
2018-07-10T09:41:53.020Z,5.70
2018-07-10T09:42:47.658Z,9.20
2018-07-10T09:44:09.316Z,8.30
2018-07-10T09:45:16.690Z,6.60
2018-07-10T09:47:24.382Z,8.10
2018-07-10T09:48:28.178Z,6.60
2018-07-10T09:49:19.173Z,6.80
2018-07-10T09:50:29.727Z,7.30
2018-07-10T09:51:34.423Z,7.10
2018-07-10T09:52:54.417Z,5.80
2018-07-10T09:54:02.318Z,8.20
2018-07-10T09:56:02.325Z,7.80
2018-07-10T09:57:00.489Z,8.00
2018-07-10T09:58:10.734Z,6.70
2018-07-10T09:59:17.200Z,7.70
2018-07-10T10:00:25.699Z,8.10
2018-07-10T10:01:28.211Z,8.00
2018-07-10T10:02:35.139Z,7.30
2018-07-10T10:03:44.576Z,7.20
2018-07-10T10:04:43.545Z,9.20
2018-07-10T10:05:49.081Z,9.80
2018-07-10T10:06:49.087Z,7.80
2018-07-10T10:08:06.501Z,10.10
2018-07-10T10:10:14.539Z,7.80
2018-07-10T10:11:18.913Z,7.40
2018-07-10T10:13:32.545Z,6.30
2018-07-10T10:16:52.943Z,8.50
2018-07-10T10:17:53.465Z,8.90
2018-07-10T10:20:03.825Z,8.60
2018-07-10T10:21:11.100Z,9.50
2018-07-10T10:22:08.543Z,8.60
2018-07-10T10:23:15.433Z,6.30
2018-07-10T10:24:28.525Z,8.60
2018-07-10T10:25:28.232Z,8.10
2018-07-10T10:26:44.205Z,7.90
2018-07-10T10:27:34.996Z,8.50
2018-07-10T10:28:49.441Z,8.20
2018-07-10T10:30:57.751Z,7.00
2018-07-10T10:31:58.270Z,8.70
2018-07-10T10:33:00.733Z,8.40
2018-07-10T10:34:06.993Z,7.90
2018-07-10T10:35:19.722Z,7.90
2018-07-10T10:36:37.212Z,8.20
2018-07-10T10:39:32.005Z,6.80
2018-07-10T10:40:43.177Z,7.90
2018-07-10T10:41:48.917Z,7.60
2018-07-10T10:43:01.721Z,6.80
2018-07-10T10:44:11.671Z,9.10
2018-07-10T10:45:04.919Z,8.50
2018-07-10T10:46:15.443Z,7.80
2018-07-10T10:47:30.113Z,5.20
2018-07-10T10:50:35.671Z,7.70
2018-07-10T10:51:45.706Z,7.80
2018-07-10T10:52:49.194Z,6.30
2018-07-10T10:53:46.334Z,6.40
2018-07-10T10:54:58.054Z,4.70
2018-07-10T10:56:04.640Z,8.30
2018-07-10T10:57:08.064Z,6.30
2018-07-10T10:58:18.621Z,8.70
2018-07-10T11:01:41.595Z,7.00
2018-07-10T11:02:37.645Z,6.30
2018-07-10T11:03:41.691Z,7.90
2018-07-10T11:04:39.346Z,6.90
2018-07-10T11:05:48.975Z,7.90
2018-07-10T11:06:53.695Z,5.90
2018-07-10T11:08:01.994Z,8.00
2018-07-10T11:09:25.451Z,6.00
2018-07-10T11:10:12.453Z,7.70
2018-07-10T11:11:23.928Z,9.90
2018-07-10T11:12:32.128Z,8.60
2018-07-10T11:14:32.651Z,6.90
2018-07-10T11:15:52.730Z,7.90
2018-07-10T11:16:43.325Z,9.20
2018-07-10T11:19:17.026Z,6.10
2018-07-10T11:20:05.353Z,7.50
2018-07-10T11:21:12.030Z,7.00
2018-07-10T11:22:11.816Z,6.10
2018-07-10T11:24:27.808Z,7.90
2018-07-10T11:25:43.275Z,9.40
2018-07-10T11:26:43.187Z,9.40
2018-07-10T11:28:52.101Z,9.50
2018-07-10T11:30:57.850Z,9.10
2018-07-10T11:32:11.381Z,8.40
2018-07-10T11:33:15.987Z,7.40
2018-07-10T11:34:09.544Z,8.60
2018-07-10T11:36:35.363Z,10.10
2018-07-10T11:38:40.394Z,8.80
2018-07-10T11:39:51.255Z,8.30
2018-07-10T11:40:43.792Z,7.60
2018-07-10T11:42:01.509Z,6.10
2018-07-10T11:43:03.051Z,7.50
2018-07-10T11:44:03.163Z,9.40
2018-07-10T11:45:14.226Z,8.60
2018-07-10T11:46:17.203Z,6.80
2018-07-10T11:47:19.566Z,8.90
2018-07-10T11:48:25.930Z,6.40
2018-07-10T11:49:37.609Z,8.50
2018-07-10T11:50:49.458Z,10.50
2018-07-10T11:51:40.137Z,6.20
2018-07-10T11:52:48.067Z,8.70
2018-07-10T11:54:04.047Z,8.70
2018-07-10T11:55:06.614Z,10.40
2018-07-10T11:57:12.776Z,11.00
2018-07-10T11:59:16.267Z,11.50
2018-07-10T12:00:27.645Z,11.00
2018-07-10T12:01:27.447Z,15.40
2018-07-10T12:02:36.877Z,11.50
2018-07-10T12:05:00.359Z,10.30
2018-07-10T12:06:03.516Z,10.80
2018-07-10T12:07:16.640Z,9.60
2018-07-10T12:08:15.464Z,9.70
2018-07-10T12:10:18.299Z,7.80
2018-07-10T12:12:33.600Z,10.60
2018-07-10T12:13:32.440Z,9.90
2018-07-10T12:14:41.468Z,9.30
2018-07-10T12:15:39.519Z,8.90
2018-07-10T12:19:08.827Z,9.40
2018-07-10T12:20:09.550Z,8.20
2018-07-10T12:21:17.647Z,10.60
2018-07-10T12:22:17.450Z,13.10
2018-07-10T12:23:19.297Z,10.30
2018-07-10T12:24:26.179Z,11.10
2018-07-10T12:25:35.391Z,8.90
2018-07-10T12:26:34.576Z,10.80
2018-07-10T12:27:47.794Z,9.80
2018-07-10T12:28:57.478Z,8.60
2018-07-10T12:31:11.779Z,11.70
2018-07-10T12:32:04.203Z,9.70
2018-07-10T12:33:14.553Z,11.90
2018-07-10T12:34:17.530Z,11.30
2018-07-10T12:36:35.156Z,13.80
2018-07-10T12:37:39.465Z,10.30
2018-07-10T12:38:46.546Z,12.80
2018-07-10T12:41:02.116Z,11.20
2018-07-10T12:42:00.184Z,12.90
2018-07-10T12:43:04.688Z,14.10
2018-07-10T12:45:11.256Z,12.30
2018-07-10T12:46:25.716Z,11.20
2018-07-10T12:47:39.634Z,16.00
2018-07-10T12:48:47.639Z,13.50
2018-07-10T12:49:36.381Z,12.90
2018-07-10T12:50:58.705Z,13.30
2018-07-10T12:51:49.495Z,12.70
2018-07-10T12:52:56.678Z,13.40
2018-07-10T12:53:57.903Z,14.20
2018-07-10T12:56:14.132Z,11.30
2018-07-10T12:57:18.194Z,12.60
2018-07-10T12:59:37.487Z,12.10
2018-07-10T13:02:39.211Z,12.80
2018-07-10T13:03:51.828Z,13.10
2018-07-10T13:04:54.700Z,11.70
2018-07-10T13:05:56.039Z,13.20
2018-07-10T13:07:13.966Z,11.70
2018-07-10T13:08:09.481Z,12.30
2018-07-10T13:09:12.486Z,10.60
2018-07-10T13:11:31.401Z,11.80
2018-07-10T13:12:54.345Z,10.00
2018-07-10T13:13:42.582Z,15.20
2018-07-10T13:14:47.198Z,11.80
2018-07-10T13:16:04.704Z,14.10
2018-07-10T13:17:05.228Z,14.60
2018-07-10T13:18:17.637Z,12.40
2018-07-10T13:19:10.776Z,12.30
2018-07-10T13:22:34.753Z,10.60
2018-07-10T13:25:00.573Z,12.60
2018-07-10T13:25:52.798Z,13.80
2018-07-10T13:27:12.852Z,14.10
2018-07-10T13:28:15.747Z,13.10
2018-07-10T13:29:16.064Z,15.30
2018-07-10T13:31:20.787Z,17.00
2018-07-10T13:32:21.324Z,13.70
2018-07-10T13:33:45.993Z,17.20
2018-07-10T13:35:39.247Z,17.10
2018-07-10T13:36:40.585Z,15.30
2018-07-10T13:37:43.257Z,17.40
2018-07-10T13:38:51.145Z,17.60
2018-07-10T13:41:08.218Z,15.50
2018-07-10T13:42:09.904Z,14.80
2018-07-10T13:43:10.662Z,14.80
2018-07-10T13:44:36.030Z,16.10
2018-07-10T13:46:26.019Z,15.10
2018-07-10T13:47:36.766Z,15.50
2018-07-10T13:48:46.607Z,16.90
2018-07-10T13:49:53.679Z,14.40
2018-07-10T13:51:01.982Z,16.20
2018-07-10T13:51:58.911Z,15.20
2018-07-10T13:53:06.291Z,16.10
2018-07-10T13:54:05.283Z,14.90
2018-07-10T13:55:06.818Z,15.40
2018-07-10T13:56:17.787Z,18.30
2018-07-10T13:57:17.898Z,16.50
2018-07-10T13:58:27.501Z,18.40
2018-07-10T13:59:32.341Z,17.90
2018-07-10T14:00:36.452Z,17.00
2018-07-10T14:01:40.141Z,17.80
2018-07-10T14:02:44.139Z,15.20
2018-07-10T14:03:50.085Z,15.20
2018-07-10T14:04:58.284Z,14.90
2018-07-10T14:06:12.114Z,16.30
2018-07-10T14:07:19.502Z,14.10
2018-07-10T14:08:16.224Z,15.60
2018-07-10T14:10:36.208Z,14.00
2018-07-10T14:11:35.190Z,15.10
2018-07-10T14:12:37.479Z,15.70
2018-07-10T14:13:42.506Z,17.50
2018-07-10T14:16:01.848Z,19.20
2018-07-10T14:17:03.177Z,16.20
2018-07-10T14:18:09.504Z,17.50
2018-07-10T14:19:09.338Z,16.70
2018-07-10T14:20:19.275Z,17.60
2018-07-10T14:21:23.996Z,15.70
2018-07-10T14:22:28.812Z,14.90
2018-07-10T14:23:37.239Z,15.00
2018-07-10T14:24:41.318Z,14.50
2018-07-10T14:25:43.373Z,16.00
2018-07-10T14:26:50.548Z,17.30
2018-07-10T14:27:51.579Z,16.90
2018-07-10T14:29:03.983Z,13.50
2018-07-10T14:31:07.676Z,15.30
2018-07-10T14:32:08.708Z,16.10
2018-07-10T14:33:22.246Z,14.80
2018-07-10T14:34:24.389Z,11.80
2018-07-10T14:35:37.615Z,13.90
2018-07-10T14:36:41.816Z,16.60
2018-07-10T14:38:50.842Z,15.70
2018-07-10T14:42:07.245Z,15.70
2018-07-10T14:43:25.783Z,20.80
2018-07-10T14:44:22.818Z,18.60
2018-07-10T14:45:26.824Z,19.10
2018-07-10T14:47:33.083Z,20.70
2018-07-10T14:49:43.843Z,23.00
2018-07-10T14:51:58.195Z,18.60
2018-07-10T14:53:01.848Z,21.70
2018-07-10T14:54:11.520Z,19.20
2018-07-10T14:56:16.857Z,22.80
2018-07-10T14:57:38.991Z,21.20
2018-07-10T14:58:48.927Z,20.60
2018-07-10T14:59:43.400Z,20.80
2018-07-10T15:00:47.306Z,22.30
2018-07-10T15:01:57.854Z,19.20
2018-07-10T15:02:59.702Z,20.90
2018-07-10T15:05:00.949Z,19.00
2018-07-10T15:06:16.106Z,21.40
2018-07-10T15:07:26.762Z,16.60
2018-07-10T15:08:33.325Z,18.30
2018-07-10T15:09:36.503Z,19.60
2018-07-10T15:11:45.118Z,20.90
2018-07-10T15:12:47.483Z,20.70
2018-07-10T15:14:56.427Z,22.00
2018-07-10T15:17:00.522Z,18.20
2018-07-10T15:18:13.939Z,22.30
2018-07-10T15:19:11.391Z,20.10
2018-07-10T15:20:22.141Z,19.70
2018-07-10T15:22:31.678Z,17.40
2018-07-10T15:23:34.090Z,21.80
2018-07-10T15:24:50.737Z,22.10
2018-07-10T15:26:00.583Z,19.00
2018-07-10T15:26:48.703Z,18.70
2018-07-10T15:27:55.477Z,22.10
2018-07-10T15:29:20.159Z,20.80
2018-07-10T15:30:15.252Z,20.50
2018-07-10T15:32:23.450Z,23.60
2018-07-10T15:33:32.675Z,25.90
2018-07-10T15:34:43.843Z,27.00
2018-07-10T15:35:43.952Z,24.50
2018-07-10T15:36:58.704Z,24.20
2018-07-10T15:37:51.951Z,61.10
2018-07-10T15:39:02.918Z,30.60
2018-07-10T15:40:17.464Z,23.30
2018-07-10T15:41:04.285Z,24.70
2018-07-10T15:42:14.209Z,24.10
2018-07-10T15:43:37.456Z,26.00
2018-07-10T15:44:33.977Z,23.80
2018-07-10T15:47:07.172Z,24.60
2018-07-10T15:47:53.054Z,20.10
2018-07-10T15:49:11.585Z,21.60
2018-07-10T15:51:08.014Z,27.60
2018-07-10T15:54:02.610Z,24.20
2018-07-10T15:54:35.994Z,19.30
2018-07-10T15:55:45.422Z,10.40
2018-07-10T15:56:59.364Z,12.90
2018-07-10T15:57:54.036Z,11.30
2018-07-10T16:00:23.857Z,9.80
2018-07-10T16:01:20.473Z,10.70
2018-07-10T16:02:18.130Z,9.30
2018-07-10T16:03:23.570Z,11.70
2018-07-10T16:04:28.687Z,10.80
2018-07-10T16:05:24.597Z,10.00
2018-07-10T16:06:37.709Z,10.20
2018-07-10T16:07:42.954Z,9.00
2018-07-10T16:08:50.833Z,10.00
2018-07-10T16:09:49.404Z,10.90
2018-07-10T16:11:05.079Z,8.90
2018-07-10T16:11:57.097Z,11.70
2018-07-10T16:14:10.629Z,11.40
2018-07-10T16:15:13.401Z,10.80
2018-07-10T16:16:32.762Z,12.20
2018-07-10T16:17:20.589Z,12.30
2018-07-10T16:19:35.652Z,18.70
2018-07-10T16:20:46.100Z,17.30
2018-07-10T16:21:53.794Z,12.80
2018-07-10T16:25:35.800Z,13.50
2018-07-10T16:27:42.567Z,14.20
2018-07-10T16:28:42.878Z,13.50
2018-07-10T16:29:47.291Z,13.50
2018-07-10T16:30:56.204Z,15.00
2018-07-10T16:31:44.004Z,18.60
2018-07-10T16:32:54.273Z,16.10
2018-07-10T16:34:18.458Z,19.80
2018-07-10T16:34:50.497Z,20.20
2018-07-10T16:36:03.304Z,20.40
2018-07-10T16:37:18.056Z,16.90
2018-07-10T16:38:24.727Z,18.90
2018-07-10T16:39:19.195Z,18.80
2018-07-10T16:40:31.493Z,17.60
2018-07-10T16:41:32.222Z,20.40
2018-07-10T16:42:35.395Z,19.20
2018-07-10T16:43:39.299Z,20.80
2018-07-10T16:44:49.532Z,20.70
2018-07-10T16:45:39.512Z,20.80
2018-07-10T16:46:59.794Z,20.00
2018-07-10T16:49:07.179Z,23.30
2018-07-10T16:50:19.320Z,19.60
2018-07-10T16:51:19.585Z,21.50
2018-07-10T16:52:17.755Z,19.80
2018-07-10T16:53:30.555Z,18.00
2018-07-10T16:54:35.887Z,18.70
2018-07-10T16:55:43.369Z,18.60
2018-07-10T16:57:48.603Z,23.10
2018-07-10T16:58:58.442Z,23.00
2018-07-10T17:00:04.402Z,24.50
2018-07-10T17:02:21.403Z,26.10
2018-07-10T17:03:07.795Z,23.80
2018-07-10T17:04:18.238Z,27.60
2018-07-10T17:06:39.963Z,24.40
2018-07-10T17:07:40.824Z,24.20
2018-07-10T17:08:41.207Z,24.90
2018-07-10T17:09:51.148Z,20.10
2018-07-10T17:11:00.265Z,27.30
2018-07-10T17:12:03.864Z,23.00
2018-07-10T17:13:13.824Z,23.20
2018-07-10T17:14:16.157Z,24.00
2018-07-10T17:15:18.418Z,23.80